Terminal Aerodrome Forecast
Issued by NWS Wakefield, VA

Home | Current Version | Previous Version | Text Only | Print | Product List | Glossary On
Versions: 1 2 3 4 5 6 7 8 9 10 11 12 13 14 15 16 17 18 19 20 21 22 23 24 25 26 27 28 29 30 31 32 33 34 35 36 37 38 39
235
FTUS41 KAKQ 141120
TAFRIC
TAF
KRIC 141120Z 1412/1512 18005KT P6SM SCT050 BKN120
     FM142100 13007KT 5SM SHRA OVC040
     FM150000 06007KT 3SM SHRA BR SCT012 OVC020
     FM150400 02005KT P6SM OVC005=

USA.gov is the U.S. government's official web portal to all federal, state and local government web resources and services.